createdAt,value
2018-03-21T00:00:01.366Z,1012.6
2018-03-21T00:01:05.898Z,1012.6
2018-03-21T00:02:08.164Z,1012.6
2018-03-21T00:03:11.628Z,1012.6
2018-03-21T00:04:12.252Z,1012.6
2018-03-21T00:05:13.801Z,1012.6
2018-03-21T00:06:15.944Z,1012.6
2018-03-21T00:07:17.911Z,1012.6
2018-03-21T00:08:21.638Z,1012.6
2018-03-21T00:09:25.227Z,1012.6
2018-03-21T00:10:27.628Z,1012.6
2018-03-21T00:11:28.202Z,1012.6
2018-03-21T00:12:29.636Z,1012.7
2018-03-21T00:13:31.044Z,1012.6
2018-03-21T00:14:34.358Z,1012.6
2018-03-21T00:15:36.463Z,1012.7
2018-03-21T00:16:39.754Z,1012.7
2018-03-21T00:17:42.210Z,1012.6
2018-03-21T00:18:44.513Z,1012.7
2018-03-21T00:19:46.321Z,1012.7
2018-03-21T00:20:48.650Z,1012.7
2018-03-21T00:21:51.626Z,1012.7
2018-03-21T00:22:54.103Z,1012.8
2018-03-21T00:23:55.527Z,1012.8
2018-03-21T00:24:59.640Z,1012.7
2018-03-21T00:26:02.899Z,1012.8
2018-03-21T00:27:05.331Z,1012.8
2018-03-21T00:28:06.945Z,1012.7
2018-03-21T00:29:11.642Z,1012.8
2018-03-21T00:30:14.059Z,1012.8
2018-03-21T00:31:17.126Z,1012.8
2018-03-21T00:32:19.703Z,1012.8
2018-03-21T00:33:21.811Z,1012.9
2018-03-21T00:34:23.756Z,1012.9
2018-03-21T00:35:25.122Z,1012.8
2018-03-21T00:36:27.499Z,1012.9
2018-03-21T00:37:30.898Z,1012.9
2018-03-21T00:38:32.992Z,1012.9
2018-03-21T00:39:34.387Z,1012.9
2018-03-21T00:40:37.965Z,1012.9
2018-03-21T00:41:39.735Z,1012.9
2018-03-21T00:42:41.898Z,1012.9
2018-03-21T00:43:44.843Z,1012.9
2018-03-21T00:44:47.808Z,1012.9
2018-03-21T00:45:50.125Z,1012.9
2018-03-21T00:46:53.127Z,1012.9
2018-03-21T00:47:54.515Z,1012.9
2018-03-21T00:48:55.985Z,1012.9
2018-03-21T00:49:59.208Z,1012.9
2018-03-21T00:51:00.742Z,1012.9
2018-03-21T00:52:04.155Z,1012.9
2018-03-21T00:53:05.583Z,1013.0
2018-03-21T00:54:07.468Z,1012.9
2018-03-21T00:55:08.867Z,1013.0
2018-03-21T00:56:10.258Z,1013.0
2018-03-21T00:57:13.278Z,1013.0
2018-03-21T00:58:14.794Z,1013.0
2018-03-21T00:59:17.478Z,1013.0
2018-03-21T01:00:20.387Z,1013.0
2018-03-21T01:01:25.453Z,1013.0
2018-03-21T01:02:27.539Z,1013.0
2018-03-21T01:03:29.476Z,1013.0
2018-03-21T01:04:31.774Z,1013.0
2018-03-21T01:05:33.352Z,1013.0
2018-03-21T01:06:34.838Z,1013.0
2018-03-21T01:07:36.529Z,1013.0
2018-03-21T01:08:38.474Z,1013.0
2018-03-21T01:09:39.894Z,1013.0
2018-03-21T01:10:42.050Z,1013.1
2018-03-21T01:11:44.753Z,1013.1
2018-03-21T01:12:46.938Z,1013.0
2018-03-21T01:13:49.714Z,1013.1
2018-03-21T01:14:51.218Z,1013.1
2018-03-21T01:15:53.776Z,1013.1
2018-03-21T01:16:56.938Z,1013.1
2018-03-21T01:17:58.621Z,1013.1
2018-03-21T01:19:00.908Z,1013.0
2018-03-21T01:20:02.277Z,1013.1
2018-03-21T01:21:03.701Z,1013.1
2018-03-21T01:22:05.739Z,1013.0
2018-03-21T01:23:07.181Z,1013.1
2018-03-21T01:24:08.629Z,1013.0
2018-03-21T01:25:09.999Z,1013.1
2018-03-21T01:26:11.442Z,1013.1
2018-03-21T01:27:13.478Z,1013.1
2018-03-21T01:28:15.698Z,1013.1
2018-03-21T01:29:17.464Z,1013.1
2018-03-21T01:30:20.102Z,1013.1
2018-03-21T01:31:21.607Z,1013.1
2018-03-21T01:32:23.186Z,1013.0
2018-03-21T01:33:25.710Z,1013.1
2018-03-21T01:34:27.132Z,1013.0
2018-03-21T01:35:28.573Z,1013.1
2018-03-21T01:36:30.087Z,1013.1
2018-03-21T01:37:32.136Z,1013.0
2018-03-21T01:38:34.636Z,1013.0
2018-03-21T01:39:36.840Z,1013.1
2018-03-21T01:40:39.188Z,1013.0
2018-03-21T01:41:42.631Z,1013.0
2018-03-21T01:42:43.639Z,1013.0
2018-03-21T01:43:45.075Z,1013.1
2018-03-21T01:44:47.501Z,1013.1
2018-03-21T01:45:49.686Z,1013.0
2018-03-21T01:46:51.578Z,1013.0
2018-03-21T01:47:53.093Z,1013.0
2018-03-21T01:48:54.620Z,1013.1
2018-03-21T01:49:57.033Z,1013.0
2018-03-21T01:50:59.832Z,1013.0
2018-03-21T01:52:01.341Z,1013.0
2018-03-21T01:53:03.152Z,1013.0
2018-03-21T01:54:04.598Z,1013.0
2018-03-21T01:55:08.418Z,1013.0
2018-03-21T01:56:09.803Z,1013.0
2018-03-21T01:57:11.270Z,1013.0
2018-03-21T01:58:13.490Z,1013.0
2018-03-21T01:59:15.854Z,1013.0
2018-03-21T02:00:17.371Z,1013.0
2018-03-21T02:01:20.984Z,1013.0
2018-03-21T02:02:22.564Z,1013.0
2018-03-21T02:03:24.756Z,1013.0
2018-03-21T02:04:26.924Z,1013.0
2018-03-21T02:05:28.443Z,1013.0
2018-03-21T02:06:31.535Z,1013.0
2018-03-21T02:07:33.376Z,1013.0
2018-03-21T02:08:34.913Z,1013.0
2018-03-21T02:09:36.391Z,1013.0
2018-03-21T02:10:38.282Z,1013.0
2018-03-21T02:11:39.832Z,1013.0
2018-03-21T02:12:41.248Z,1013.1
2018-03-21T02:13:42.759Z,1013.0
2018-03-21T02:14:44.296Z,1013.1
2018-03-21T02:15:45.783Z,1013.1
2018-03-21T02:16:47.330Z,1013.1
2018-03-21T02:17:50.844Z,1013.1
2018-03-21T02:18:52.316Z,1013.1
2018-03-21T02:19:53.697Z,1013.0
2018-03-21T02:20:55.865Z,1013.0
2018-03-21T02:21:58.897Z,1013.0
2018-03-21T02:23:01.907Z,1013.0
2018-03-21T02:24:04.034Z,1013.0
2018-03-21T02:25:06.253Z,1013.0
2018-03-21T02:26:08.577Z,1013.0
2018-03-21T02:27:10.711Z,1013.1
2018-03-21T02:28:12.627Z,1013.0
2018-03-21T02:29:14.209Z,1013.1
2018-03-21T02:30:16.230Z,1013.0
2018-03-21T02:31:22.854Z,1013.1
2018-03-21T02:32:24.691Z,1013.1
2018-03-21T02:33:26.230Z,1013.0
2018-03-21T02:34:28.392Z,1013.0
2018-03-21T02:35:31.693Z,1013.1
2018-03-21T02:36:33.170Z,1013.1
2018-03-21T02:37:34.558Z,1013.0
2018-03-21T02:38:35.961Z,1013.0
2018-03-21T02:39:38.056Z,1013.0
2018-03-21T02:40:40.262Z,1013.1
2018-03-21T02:41:42.555Z,1013.0
2018-03-21T02:42:44.044Z,1013.0
2018-03-21T02:43:45.469Z,1013.1
2018-03-21T02:44:47.427Z,1013.0
2018-03-21T02:45:48.944Z,1013.0
2018-03-21T02:46:50.414Z,1013.0
2018-03-21T02:47:53.933Z,1013.0
2018-03-21T02:48:56.119Z,1013.0
2018-03-21T02:49:57.537Z,1013.0
2018-03-21T02:50:58.978Z,1013.0
2018-03-21T02:52:01.098Z,1013.0
2018-03-21T02:53:03.186Z,1013.0
2018-03-21T02:54:04.600Z,1013.0
2018-03-21T02:55:06.962Z,1013.0
2018-03-21T02:56:09.544Z,1013.0
2018-03-21T02:57:11.594Z,1013.0
2018-03-21T02:58:13.017Z,1013.0
2018-03-21T02:59:15.362Z,1013.0
2018-03-21T03:00:17.211Z,1013.0
2018-03-21T03:01:19.183Z,1013.1
2018-03-21T03:02:21.059Z,1013.0
2018-03-21T03:03:22.580Z,1013.0
2018-03-21T03:04:23.980Z,1013.1
2018-03-21T03:05:25.485Z,1013.0
2018-03-21T03:06:26.974Z,1013.1
2018-03-21T03:07:28.465Z,1013.0
2018-03-21T03:08:30.744Z,1013.0
2018-03-21T03:09:32.171Z,1013.0
2018-03-21T03:10:33.578Z,1013.0
2018-03-21T03:11:36.339Z,1013.0
2018-03-21T03:12:37.842Z,1013.0
2018-03-21T03:13:40.122Z,1013.0
2018-03-21T03:14:42.504Z,1013.0
2018-03-21T03:15:43.902Z,1013.0
2018-03-21T03:16:46.272Z,1013.0
2018-03-21T03:17:47.674Z,1013.0
2018-03-21T03:18:51.011Z,1013.0
2018-03-21T03:19:52.514Z,1013.0
2018-03-21T03:20:54.602Z,1013.0
2018-03-21T03:21:58.442Z,1013.0
2018-03-21T03:22:59.916Z,1013.1
2018-03-21T03:24:01.364Z,1013.1
2018-03-21T03:25:03.313Z,1013.1
2018-03-21T03:26:04.854Z,1013.1
2018-03-21T03:27:07.422Z,1013.1
2018-03-21T03:28:08.948Z,1013.1
2018-03-21T03:29:10.954Z,1013.1
2018-03-21T03:30:13.289Z,1013.0
2018-03-21T03:31:14.665Z,1013.1
2018-03-21T03:32:16.829Z,1013.0
2018-03-21T03:33:18.676Z,1013.1
2018-03-21T03:34:21.838Z,1013.1
2018-03-21T03:35:23.935Z,1013.1
2018-03-21T03:36:25.412Z,1013.1
2018-03-21T03:37:27.562Z,1013.1
2018-03-21T03:38:29.731Z,1013.1
2018-03-21T03:39:34.154Z,1013.1
2018-03-21T03:40:34.742Z,1013.2
2018-03-21T03:41:36.379Z,1013.1
2018-03-21T03:42:38.390Z,1013.2
2018-03-21T03:43:39.896Z,1013.2
2018-03-21T03:44:42.099Z,1013.1
2018-03-21T03:45:43.511Z,1013.2
2018-03-21T03:46:45.534Z,1013.1
2018-03-21T03:47:47.063Z,1013.2
2018-03-21T03:48:49.733Z,1013.1
2018-03-21T03:49:51.126Z,1013.2
2018-03-21T03:50:52.511Z,1013.2
2018-03-21T03:51:53.917Z,1013.1
2018-03-21T03:52:56.852Z,1013.2
2018-03-21T03:53:59.753Z,1013.2
2018-03-21T03:55:01.275Z,1013.2
2018-03-21T03:56:03.314Z,1013.2
2018-03-21T03:57:06.144Z,1013.2
2018-03-21T03:58:06.975Z,1013.1
2018-03-21T03:59:08.393Z,1013.2
2018-03-21T04:00:10.549Z,1013.2
2018-03-21T04:01:11.927Z,1013.2
2018-03-21T04:02:13.895Z,1013.2
2018-03-21T04:03:16.657Z,1013.2
2018-03-21T04:04:18.817Z,1013.2
2018-03-21T04:05:21.234Z,1013.3
2018-03-21T04:06:22.657Z,1013.3
2018-03-21T04:07:24.072Z,1013.3
2018-03-21T04:08:25.549Z,1013.3
2018-03-21T04:09:28.088Z,1013.3
2018-03-21T04:10:30.520Z,1013.3
2018-03-21T04:11:32.074Z,1013.3
2018-03-21T04:12:34.029Z,1013.4
2018-03-21T04:13:35.448Z,1013.4
2018-03-21T04:14:36.840Z,1013.4
2018-03-21T04:15:39.343Z,1013.4
2018-03-21T04:16:40.800Z,1013.4
2018-03-21T04:17:43.758Z,1013.4
2018-03-21T04:18:47.483Z,1013.4
2018-03-21T04:19:49.717Z,1013.4
2018-03-21T04:20:52.143Z,1013.4
2018-03-21T04:21:54.722Z,1013.4
2018-03-21T04:22:56.186Z,1013.4
2018-03-21T04:23:58.506Z,1013.4
2018-03-21T04:25:00.484Z,1013.4
2018-03-21T04:26:01.978Z,1013.4
2018-03-21T04:27:03.518Z,1013.4
2018-03-21T04:28:07.077Z,1013.3
2018-03-21T04:29:08.580Z,1013.4
2018-03-21T04:30:11.372Z,1013.4
2018-03-21T04:31:12.827Z,1013.4
2018-03-21T04:32:14.319Z,1013.4
2018-03-21T04:33:15.866Z,1013.4
2018-03-21T04:34:17.853Z,1013.3
2018-03-21T04:35:20.238Z,1013.4
2018-03-21T04:36:21.690Z,1013.4
2018-03-21T04:37:23.656Z,1013.4
2018-03-21T04:38:25.187Z,1013.4
2018-03-21T04:39:27.373Z,1013.3
2018-03-21T04:40:28.916Z,1013.4
2018-03-21T04:41:31.401Z,1013.4
2018-03-21T04:42:34.151Z,1013.4
2018-03-21T04:43:37.214Z,1013.4
2018-03-21T04:44:38.708Z,1013.4
2018-03-21T04:45:40.067Z,1013.4
2018-03-21T04:46:43.370Z,1013.4
2018-03-21T04:47:44.766Z,1013.4
2018-03-21T04:48:47.051Z,1013.4
2018-03-21T04:49:49.152Z,1013.5
2018-03-21T04:50:50.889Z,1013.5
2018-03-21T04:51:52.336Z,1013.5
2018-03-21T04:52:53.812Z,1013.4
2018-03-21T04:53:55.239Z,1013.5
2018-03-21T04:54:57.444Z,1013.5
2018-03-21T04:55:59.479Z,1013.5
2018-03-21T04:57:00.874Z,1013.5
2018-03-21T04:58:02.845Z,1013.5
2018-03-21T04:59:04.703Z,1013.5
2018-03-21T05:00:06.199Z,1013.5
2018-03-21T05:01:07.573Z,1013.4
2018-03-21T05:02:09.929Z,1013.4
2018-03-21T05:03:12.079Z,1013.4
2018-03-21T05:04:13.515Z,1013.5
2018-03-21T05:05:15.448Z,1013.4
2018-03-21T05:06:17.402Z,1013.4
2018-03-21T05:07:20.019Z,1013.4
2018-03-21T05:08:22.799Z,1013.5
2018-03-21T05:09:24.183Z,1013.4
2018-03-21T05:10:26.178Z,1013.4
2018-03-21T05:11:27.648Z,1013.5
2018-03-21T05:12:29.910Z,1013.5
2018-03-21T05:13:31.431Z,1013.5
2018-03-21T05:14:32.986Z,1013.5
2018-03-21T05:15:35.527Z,1013.5
2018-03-21T05:16:37.565Z,1013.5
2018-03-21T05:17:39.645Z,1013.6
2018-03-21T05:18:41.090Z,1013.6
2018-03-21T05:19:43.239Z,1013.5
2018-03-21T05:20:44.636Z,1013.6
2018-03-21T05:21:47.969Z,1013.5
2018-03-21T05:22:50.991Z,1013.5
2018-03-21T05:23:52.412Z,1013.6
2018-03-21T05:24:55.557Z,1013.6
2018-03-21T05:25:57.023Z,1013.6
2018-03-21T05:26:58.480Z,1013.6
2018-03-21T05:28:00.728Z,1013.7
2018-03-21T05:29:02.280Z,1013.7
2018-03-21T05:30:03.725Z,1013.7
2018-03-21T05:31:05.226Z,1013.7
2018-03-21T05:32:08.151Z,1013.7
2018-03-21T05:33:10.547Z,1013.7
2018-03-21T05:34:14.213Z,1013.7
2018-03-21T05:35:15.785Z,1013.7
2018-03-21T05:36:17.557Z,1013.7
2018-03-21T05:37:19.061Z,1013.7
2018-03-21T05:38:20.494Z,1013.7
2018-03-21T05:39:22.085Z,1013.7
2018-03-21T05:40:23.641Z,1013.7
2018-03-21T05:41:25.999Z,1013.7
2018-03-21T05:42:28.838Z,1013.8
2018-03-21T05:43:32.768Z,1013.8
2018-03-21T05:44:34.179Z,1013.8
2018-03-21T05:45:36.152Z,1013.7
2018-03-21T05:46:37.884Z,1013.8
2018-03-21T05:47:39.798Z,1013.8
2018-03-21T05:48:41.544Z,1013.8
2018-03-21T05:49:43.968Z,1013.9
2018-03-21T05:50:45.399Z,1013.8
2018-03-21T05:51:47.259Z,1013.8
2018-03-21T05:52:48.697Z,1013.9
2018-03-21T05:53:50.376Z,1013.9
2018-03-21T05:54:52.162Z,1013.9
2018-03-21T05:55:54.150Z,1013.9
2018-03-21T05:56:55.512Z,1013.9
2018-03-21T05:57:56.934Z,1013.9
2018-03-21T05:58:58.327Z,1013.9
2018-03-21T06:00:00.666Z,1013.9
2018-03-21T06:01:02.178Z,1014.0
2018-03-21T06:02:03.583Z,1014.0
2018-03-21T06:03:05.154Z,1014.0
2018-03-21T06:04:07.587Z,1014.0
2018-03-21T06:05:10.699Z,1014.0
2018-03-21T06:06:12.219Z,1014.0
2018-03-21T06:07:15.272Z,1014.0
2018-03-21T06:08:16.664Z,1014.0
2018-03-21T06:09:18.078Z,1014.0
2018-03-21T06:10:19.448Z,1014.0
2018-03-21T06:11:20.797Z,1014.0
2018-03-21T06:12:23.318Z,1014.0
2018-03-21T06:13:25.935Z,1014.0
2018-03-21T06:14:28.330Z,1014.0
2018-03-21T06:15:30.713Z,1014.1
2018-03-21T06:16:32.216Z,1014.1
2018-03-21T06:17:34.532Z,1014.1
2018-03-21T06:18:36.989Z,1014.1
2018-03-21T06:19:38.526Z,1014.1
2018-03-21T06:20:39.950Z,1014.2
2018-03-21T06:21:42.455Z,1014.2
2018-03-21T06:22:44.734Z,1014.1
2018-03-21T06:23:47.201Z,1014.2
2018-03-21T06:24:48.598Z,1014.3
2018-03-21T06:25:50.009Z,1014.3
2018-03-21T06:26:52.162Z,1014.2
2018-03-21T06:27:54.467Z,1014.3
2018-03-21T06:28:56.869Z,1014.3
2018-03-21T06:29:58.261Z,1014.3
2018-03-21T06:30:59.652Z,1014.3
2018-03-21T06:32:01.033Z,1014.3
2018-03-21T06:33:02.902Z,1014.3
2018-03-21T06:34:04.330Z,1014.4
2018-03-21T06:35:05.736Z,1014.4
2018-03-21T06:36:07.662Z,1014.4
2018-03-21T06:37:10.812Z,1014.4
2018-03-21T06:38:12.249Z,1014.4
2018-03-21T06:39:13.637Z,1014.4
2018-03-21T06:40:15.899Z,1014.4
2018-03-21T06:41:17.966Z,1014.4
2018-03-21T06:42:21.006Z,1014.5
2018-03-21T06:43:22.526Z,1014.5
2018-03-21T06:44:25.037Z,1014.5
2018-03-21T06:45:27.566Z,1014.5
2018-03-21T06:46:29.165Z,1014.5
2018-03-21T06:47:30.675Z,1014.5
2018-03-21T06:48:32.829Z,1014.5
2018-03-21T06:49:35.368Z,1014.5
2018-03-21T06:50:36.849Z,1014.6
2018-03-21T06:51:38.925Z,1014.6
2018-03-21T06:52:41.589Z,1014.6
2018-03-21T06:53:42.981Z,1014.6
2018-03-21T06:54:45.160Z,1014.8
2018-03-21T06:55:45.824Z,1015.1
2018-03-21T06:56:47.231Z,1015.1
2018-03-21T06:57:48.928Z,1015.2
2018-03-21T06:58:50.803Z,1015.1
2018-03-21T06:59:52.538Z,1015.1
2018-03-21T07:00:55.944Z,1015.1
2018-03-21T07:01:57.387Z,1015.1
2018-03-21T07:02:58.880Z,1015.1
2018-03-21T07:04:00.339Z,1015.1
2018-03-21T07:05:03.301Z,1015.1
2018-03-21T07:06:04.687Z,1015.1
2018-03-21T07:07:07.718Z,1015.1
2018-03-21T07:08:09.660Z,1015.1
2018-03-21T07:09:12.742Z,1015.1
2018-03-21T07:10:14.511Z,1015.1
2018-03-21T07:11:16.241Z,1015.2
2018-03-21T07:12:17.706Z,1015.2
2018-03-21T07:13:19.975Z,1015.1
2018-03-21T07:14:21.930Z,1015.2
2018-03-21T07:15:23.409Z,1015.1
2018-03-21T07:16:24.851Z,1015.2
2018-03-21T07:17:26.750Z,1015.1
2018-03-21T07:18:28.262Z,1015.1
2018-03-21T07:19:32.702Z,1015.1
2018-03-21T07:20:34.212Z,1015.2
2018-03-21T07:21:36.335Z,1015.2
2018-03-21T07:22:39.491Z,1015.2
2018-03-21T07:23:43.416Z,1015.2
2018-03-21T07:24:45.365Z,1015.3
2018-03-21T07:25:47.987Z,1015.3
2018-03-21T07:26:50.569Z,1015.3
2018-03-21T07:27:52.562Z,1015.3
2018-03-21T07:28:54.081Z,1015.3
2018-03-21T07:29:56.168Z,1015.3
2018-03-21T07:30:58.156Z,1015.4
2018-03-21T07:32:00.558Z,1015.3
2018-03-21T07:33:02.365Z,1015.4
2018-03-21T07:34:05.240Z,1015.4
2018-03-21T07:35:06.685Z,1015.4
2018-03-21T07:36:12.666Z,1015.5
2018-03-21T07:37:14.468Z,1015.5
2018-03-21T07:38:17.221Z,1015.4
2018-03-21T07:39:19.692Z,1015.5
2018-03-21T07:40:22.968Z,1015.5
2018-03-21T07:41:25.288Z,1015.4
2018-03-21T07:42:27.595Z,1015.5
2018-03-21T07:43:30.001Z,1015.5
2018-03-21T07:44:31.529Z,1015.5
2018-03-21T07:45:34.667Z,1015.5
2018-03-21T07:46:36.306Z,1015.6
2018-03-21T07:47:37.837Z,1015.6
2018-03-21T07:48:40.998Z,1015.6
2018-03-21T07:49:42.510Z,1015.6
2018-03-21T07:50:45.681Z,1015.6
2018-03-21T07:51:47.523Z,1015.6
2018-03-21T07:52:49.606Z,1015.7
2018-03-21T07:53:51.055Z,1015.7
2018-03-21T07:54:52.520Z,1015.7
2018-03-21T07:55:55.869Z,1015.7
2018-03-21T07:57:00.718Z,1015.8
2018-03-21T07:58:06.057Z,1015.8
2018-03-21T07:59:07.542Z,1015.8
2018-03-21T08:00:09.055Z,1015.8
2018-03-21T08:01:11.487Z,1015.9
2018-03-21T08:02:14.798Z,1015.9
2018-03-21T08:03:16.368Z,1015.9
2018-03-21T08:04:19.537Z,1015.9
2018-03-21T08:05:22.462Z,1015.9
2018-03-21T08:06:24.939Z,1015.9
2018-03-21T08:07:27.169Z,1016.0
2018-03-21T08:08:29.383Z,1016.0
2018-03-21T08:09:33.254Z,1015.9
2018-03-21T08:10:36.249Z,1015.9
2018-03-21T08:11:38.408Z,1015.9
2018-03-21T08:12:40.452Z,1016.0
2018-03-21T08:13:42.629Z,1016.0
2018-03-21T08:14:45.502Z,1016.0
2018-03-21T08:15:47.030Z,1016.0
2018-03-21T08:16:48.578Z,1016.0
2018-03-21T08:17:51.053Z,1016.1
2018-03-21T08:18:54.188Z,1016.0
2018-03-21T08:19:56.284Z,1016.1
2018-03-21T08:20:58.798Z,1016.1
2018-03-21T08:22:00.417Z,1016.0
2018-03-21T08:23:02.019Z,1016.1
2018-03-21T08:24:04.351Z,1016.1
2018-03-21T08:25:06.803Z,1016.1
2018-03-21T08:26:08.416Z,1016.1
2018-03-21T08:27:10.130Z,1016.2
2018-03-21T08:28:13.459Z,1016.1
2018-03-21T08:29:16.321Z,1016.1
2018-03-21T08:30:20.230Z,1016.2
2018-03-21T08:31:22.881Z,1016.2
2018-03-21T08:32:24.492Z,1016.2
2018-03-21T08:33:26.746Z,1016.2
2018-03-21T08:34:29.614Z,1016.2
2018-03-21T08:35:31.654Z,1016.1
2018-03-21T08:36:33.637Z,1016.3
2018-03-21T08:37:37.346Z,1016.2
2018-03-21T08:38:39.684Z,1016.2
2018-03-21T08:40:25.206Z,1016.3
2018-03-21T08:41:27.053Z,1016.3
2018-03-21T08:42:29.147Z,1016.3
2018-03-21T08:43:33.079Z,1016.2
2018-03-21T08:44:35.357Z,1016.2
2018-03-21T08:45:37.761Z,1016.3
2018-03-21T08:46:40.747Z,1016.4
2018-03-21T08:47:42.272Z,1016.4
2018-03-21T08:48:43.759Z,1016.3
2018-03-21T08:49:46.158Z,1016.4
2018-03-21T08:50:47.638Z,1016.4
2018-03-21T08:51:49.844Z,1016.4
2018-03-21T08:52:51.308Z,1016.5
2018-03-21T08:53:53.135Z,1016.5
2018-03-21T08:54:54.605Z,1016.6
2018-03-21T08:55:56.831Z,1016.4
2018-03-21T08:56:58.408Z,1016.5
2018-03-21T08:58:00.240Z,1016.5
2018-03-21T08:59:02.299Z,1016.4
2018-03-21T09:00:03.797Z,1016.5
2018-03-21T09:01:06.168Z,1016.6
2018-03-21T09:02:07.601Z,1016.3
2018-03-21T09:03:09.211Z,1016.3
2018-03-21T09:04:12.132Z,1016.4
2018-03-21T09:05:13.480Z,1016.3
2018-03-21T09:06:15.272Z,1016.3
2018-03-21T09:07:17.962Z,1016.4
2018-03-21T09:08:20.630Z,1016.3
2018-03-21T09:09:22.800Z,1016.4
2018-03-21T09:10:25.780Z,1016.3
2018-03-21T09:11:28.712Z,1016.2
2018-03-21T09:12:31.067Z,1016.2
2018-03-21T09:13:32.694Z,1016.3
2018-03-21T09:14:35.636Z,1016.5
2018-03-21T09:15:36.562Z,1016.6
2018-03-21T09:16:38.148Z,1016.5
2018-03-21T09:17:39.665Z,1016.4
2018-03-21T09:18:41.769Z,1016.4
2018-03-21T09:19:43.650Z,1016.3
2018-03-21T09:20:46.306Z,1016.4
2018-03-21T09:21:48.308Z,1016.2
2018-03-21T09:22:50.504Z,1016.3
2018-03-21T09:23:53.428Z,1016.4
2018-03-21T09:24:54.933Z,1016.3
2018-03-21T09:25:58.327Z,1016.3
2018-03-21T09:27:00.615Z,1016.3
2018-03-21T09:28:01.993Z,1016.4
2018-03-21T09:29:03.458Z,1016.4
2018-03-21T09:30:05.031Z,1016.3
2018-03-21T09:31:07.231Z,1016.3
2018-03-21T09:32:09.616Z,1016.4
2018-03-21T09:33:13.640Z,1016.3
2018-03-21T09:34:15.289Z,1016.1
2018-03-21T09:35:18.228Z,1016.3
2018-03-21T09:36:21.706Z,1016.2
2018-03-21T09:37:24.153Z,1016.3
2018-03-21T09:38:25.478Z,1016.3
2018-03-21T09:39:27.000Z,1016.4
2018-03-21T09:40:29.208Z,1016.4
2018-03-21T09:41:30.661Z,1016.2
2018-03-21T09:42:33.878Z,1016.2
2018-03-21T09:43:36.107Z,1016.2
2018-03-21T09:44:37.722Z,1016.1
2018-03-21T09:45:39.198Z,1016.1
2018-03-21T09:46:40.707Z,1016.1
2018-03-21T09:47:42.856Z,1016.1
2018-03-21T09:48:44.460Z,1016.2
2018-03-21T09:49:46.466Z,1016.2
2018-03-21T09:50:48.088Z,1016.0
2018-03-21T09:51:50.547Z,1016.2
2018-03-21T09:52:52.062Z,1015.8
2018-03-21T09:53:54.509Z,1016.0
2018-03-21T09:54:56.171Z,1016.0
2018-03-21T09:55:57.637Z,1015.9
2018-03-21T09:56:59.083Z,1015.9
2018-03-21T09:58:40.893Z,1015.8
2018-03-21T09:59:43.184Z,1015.8
2018-03-21T10:00:45.327Z,1016.0
2018-03-21T10:01:46.676Z,1015.9
2018-03-21T10:02:48.786Z,1016.0
2018-03-21T10:03:50.303Z,1016.0
2018-03-21T10:04:52.470Z,1016.2
2018-03-21T10:05:54.018Z,1016.1
2018-03-21T10:06:55.589Z,1016.1
2018-03-21T10:07:57.485Z,1016.0
2018-03-21T10:08:59.051Z,1016.1
2018-03-21T10:10:00.592Z,1016.1
2018-03-21T10:11:02.273Z,1016.0
2018-03-21T10:12:04.198Z,1015.9
2018-03-21T10:13:07.368Z,1015.9
2018-03-21T10:14:08.919Z,1015.8
2018-03-21T10:15:10.400Z,1015.9
2018-03-21T10:16:11.900Z,1016.0
2018-03-21T10:17:14.067Z,1016.1
2018-03-21T10:18:15.547Z,1015.9
2018-03-21T10:19:18.011Z,1016.0
2018-03-21T10:20:20.593Z,1016.0
2018-03-21T10:21:22.769Z,1015.8
2018-03-21T10:22:24.339Z,1015.9
2018-03-21T10:23:25.874Z,1016.0
2018-03-21T10:24:28.030Z,1015.9
2018-03-21T10:25:28.975Z,1016.1
2018-03-21T10:26:32.154Z,1015.7
2018-03-21T10:27:33.675Z,1015.0
2018-03-21T10:28:35.980Z,1016.0
2018-03-21T10:29:38.671Z,1016.0
2018-03-21T10:30:40.738Z,1016.0
2018-03-21T10:31:42.238Z,1016.0
2018-03-21T10:32:45.034Z,1015.3
2018-03-21T10:33:45.776Z,1015.3
2018-03-21T10:34:47.862Z,1016.2
2018-03-21T10:35:49.685Z,1016.2
2018-03-21T10:36:52.940Z,1015.8
2018-03-21T10:37:54.674Z,1015.8
2018-03-21T10:38:56.237Z,1015.9
2018-03-21T10:39:57.748Z,1016.0
2018-03-21T10:41:00.441Z,1015.1
2018-03-21T10:42:02.015Z,1016.0
2018-03-21T10:43:03.630Z,1016.0
2018-03-21T10:44:05.672Z,1015.8
2018-03-21T10:45:07.734Z,1015.7
2018-03-21T10:46:09.222Z,1015.6
2018-03-21T10:47:10.729Z,1015.9
2018-03-21T10:48:12.431Z,1015.8
2018-03-21T10:49:15.114Z,1015.8
2018-03-21T10:50:17.267Z,1015.7
2018-03-21T10:51:18.791Z,1015.9
2018-03-21T10:52:21.389Z,1015.9
2018-03-21T10:53:23.512Z,1015.8
2018-03-21T10:54:26.625Z,1016.0
2018-03-21T10:55:28.506Z,1016.0
2018-03-21T10:56:31.154Z,1015.9
2018-03-21T10:57:32.654Z,1015.8
2018-03-21T10:58:34.846Z,1015.8
2018-03-21T10:59:36.830Z,1015.7
2018-03-21T11:00:38.958Z,1015.8
2018-03-21T11:01:40.431Z,1015.7
2018-03-21T11:02:42.596Z,1015.7
2018-03-21T11:03:44.469Z,1015.7
2018-03-21T11:04:46.880Z,1015.4
2018-03-21T11:05:49.568Z,1015.7
2018-03-21T11:06:51.754Z,1015.6
2018-03-21T11:07:53.743Z,1015.6
2018-03-21T11:08:55.267Z,1015.8
2018-03-21T11:09:56.744Z,1015.8
2018-03-21T11:10:58.438Z,1015.8
2018-03-21T11:12:01.881Z,1015.7
2018-03-21T11:13:04.050Z,1015.7
2018-03-21T11:14:05.748Z,1015.7
2018-03-21T11:15:07.326Z,1015.5
2018-03-21T11:16:08.881Z,1015.6
2018-03-21T11:17:10.713Z,1015.6
2018-03-21T11:18:12.248Z,1015.8
2018-03-21T11:19:13.802Z,1015.4
2018-03-21T11:20:17.428Z,1015.5
2018-03-21T11:21:20.005Z,1015.5
2018-03-21T11:22:21.771Z,1015.5
2018-03-21T11:23:23.788Z,1015.6
2018-03-21T11:24:25.288Z,1015.6
2018-03-21T11:25:27.030Z,1015.5
2018-03-21T11:26:28.604Z,1015.3
2018-03-21T11:27:30.603Z,1015.1
2018-03-21T11:28:33.617Z,1015.5
2018-03-21T11:29:36.134Z,1015.5
2018-03-21T11:30:37.675Z,1015.6
2018-03-21T11:31:40.798Z,1014.8
2018-03-21T11:32:42.273Z,1015.4
2018-03-21T11:33:44.688Z,1015.6
2018-03-21T11:34:46.399Z,1015.8
2018-03-21T11:35:47.958Z,1015.9
2018-03-21T11:36:49.729Z,1015.9
2018-03-21T11:37:51.572Z,1015.8
2018-03-21T11:38:54.525Z,1015.7
2018-03-21T11:39:55.992Z,1015.8
2018-03-21T11:40:58.370Z,1015.7
2018-03-21T11:42:00.917Z,1015.8
2018-03-21T11:43:03.573Z,1015.7
2018-03-21T11:44:05.567Z,1015.7
2018-03-21T11:45:07.746Z,1015.6
2018-03-21T11:46:09.314Z,1015.5
2018-03-21T11:47:10.852Z,1015.5
2018-03-21T11:48:12.475Z,1015.7
2018-03-21T11:49:14.188Z,1015.6
2018-03-21T11:50:16.311Z,1015.5
2018-03-21T11:51:18.384Z,1015.5
2018-03-21T11:52:20.610Z,1015.3
2018-03-21T11:53:22.107Z,1015.2
2018-03-21T11:54:24.243Z,1015.3
2018-03-21T11:55:27.266Z,1015.5
2018-03-21T11:56:29.447Z,1015.5
2018-03-21T11:57:32.643Z,1015.7
2018-03-21T11:58:34.246Z,1015.7
2018-03-21T11:59:35.818Z,1015.7
2018-03-21T12:00:37.296Z,1015.5
2018-03-21T12:01:38.889Z,1015.7
2018-03-21T12:02:40.400Z,1015.6
2018-03-21T12:03:42.669Z,1015.6
2018-03-21T12:04:45.925Z,1015.7
2018-03-21T12:05:47.889Z,1015.6
2018-03-21T12:06:51.257Z,1015.8
2018-03-21T12:07:53.385Z,1015.5
2018-03-21T12:08:55.676Z,1014.7
2018-03-21T12:09:58.129Z,1014.5
2018-03-21T12:11:00.919Z,1014.7
2018-03-21T12:12:03.579Z,1014.7
2018-03-21T12:13:04.800Z,1014.7
2018-03-21T12:14:06.591Z,1014.8
2018-03-21T12:15:08.435Z,1014.9
2018-03-21T12:16:09.950Z,1014.9
2018-03-21T12:17:12.492Z,1015.0
2018-03-21T12:18:14.717Z,1015.0
2018-03-21T12:19:16.268Z,1016.0
2018-03-21T12:20:18.706Z,1015.8
2018-03-21T12:21:20.934Z,1015.5
2018-03-21T12:22:23.350Z,1015.0
2018-03-21T12:23:25.557Z,1014.7
2018-03-21T12:24:27.053Z,1015.7
2018-03-21T12:25:29.056Z,1015.6
2018-03-21T12:26:30.517Z,1015.5
2018-03-21T12:27:32.893Z,1015.3
2018-03-21T12:28:35.925Z,1015.3
2018-03-21T12:29:37.811Z,1015.2
2018-03-21T12:30:39.469Z,1015.5
2018-03-21T12:31:42.690Z,1015.1
2018-03-21T12:32:46.940Z,1015.3
2018-03-21T12:33:48.650Z,1015.4
2018-03-21T12:34:50.522Z,1015.2
2018-03-21T12:35:52.293Z,1014.8
2018-03-21T12:36:53.802Z,1015.3
2018-03-21T12:37:55.874Z,1015.1
2018-03-21T12:38:57.931Z,1015.5
2018-03-21T12:39:59.816Z,1015.4
2018-03-21T12:41:02.161Z,1015.4
2018-03-21T12:42:04.215Z,1015.2
2018-03-21T12:43:06.145Z,1015.1
2018-03-21T12:44:07.637Z,1015.1
2018-03-21T12:45:10.093Z,1015.2
2018-03-21T12:46:11.349Z,1015.1
2018-03-21T12:47:12.862Z,1015.1
2018-03-21T12:48:14.357Z,1015.1
2018-03-21T12:49:16.496Z,1015.3
2018-03-21T12:50:18.016Z,1015.1
2018-03-21T12:51:19.695Z,1015.0
2018-03-21T12:52:21.999Z,1015.0
2018-03-21T12:53:23.504Z,1015.1
2018-03-21T12:54:25.720Z,1015.1
2018-03-21T12:55:27.536Z,1015.2